createdAt,value
2022-12-20T00:00:10.344Z,18.17
2022-12-20T00:00:31.980Z,18.09
2022-12-20T00:00:53.725Z,18.15
2022-12-20T00:01:18.798Z,18.14
2022-12-20T00:01:40.609Z,18.18
2022-12-20T00:02:02.455Z,18.21
2022-12-20T00:02:24.532Z,18.19
2022-12-20T00:02:47.287Z,18.17
2022-12-20T00:03:09.106Z,18.21
2022-12-20T00:03:30.721Z,18.24
2022-12-20T00:03:54.291Z,18.28
2022-12-20T00:04:16.984Z,18.28
2022-12-20T00:04:38.647Z,18.29
2022-12-20T00:05:00.267Z,18.26
2022-12-20T00:05:21.946Z,18.25
2022-12-20T00:05:44.007Z,18.31
2022-12-20T00:06:06.993Z,18.31
2022-12-20T00:06:29.171Z,18.17
2022-12-20T00:06:50.790Z,18.04
2022-12-20T00:07:12.473Z,18.00
2022-12-20T00:07:35.129Z,18.02
2022-12-20T00:07:56.757Z,18.03
2022-12-20T00:08:18.432Z,18.06
2022-12-20T00:08:40.625Z,18.15
2022-12-20T00:09:07.409Z,18.21
2022-12-20T00:09:29.001Z,18.29
2022-12-20T00:09:52.030Z,18.29
2022-12-20T00:10:13.785Z,18.24
2022-12-20T00:10:36.950Z,18.30
2022-12-20T00:11:00.299Z,18.35
2022-12-20T00:11:22.051Z,18.40
2022-12-20T00:11:43.788Z,18.44
2022-12-20T00:12:06.696Z,18.45
2022-12-20T00:12:28.369Z,18.48
2022-12-20T00:12:50.044Z,18.46
2022-12-20T00:13:13.061Z,18.49
2022-12-20T00:13:35.066Z,18.49
2022-12-20T00:13:57.866Z,18.45
2022-12-20T00:14:19.817Z,18.42
2022-12-20T00:14:41.614Z,18.45
2022-12-20T00:15:03.516Z,18.45
2022-12-20T00:15:26.185Z,18.42
2022-12-20T00:15:47.897Z,18.41
2022-12-20T00:16:12.198Z,18.44
2022-12-20T00:16:35.571Z,18.47
2022-12-20T00:16:58.278Z,18.45
2022-12-20T00:17:19.927Z,18.48
2022-12-20T00:17:41.630Z,18.50
2022-12-20T00:18:04.226Z,18.50
2022-12-20T00:18:25.855Z,18.50
2022-12-20T00:18:51.799Z,18.54
2022-12-20T00:19:13.607Z,18.52
2022-12-20T00:19:35.352Z,18.54
2022-12-20T00:19:56.953Z,18.50
2022-12-20T00:20:19.580Z,18.51
2022-12-20T00:20:41.307Z,18.51
2022-12-20T00:21:05.750Z,18.49
2022-12-20T00:21:28.850Z,18.48
2022-12-20T00:21:51.464Z,18.48
2022-12-20T00:22:13.136Z,18.47
2022-12-20T00:22:34.727Z,18.45
2022-12-20T00:22:56.642Z,18.48
2022-12-20T00:23:18.310Z,18.49
2022-12-20T00:23:41.527Z,18.46
2022-12-20T00:24:03.979Z,18.47
2022-12-20T00:24:26.517Z,18.39
2022-12-20T00:24:49.245Z,18.43
2022-12-20T00:25:12.189Z,18.44
2022-12-20T00:25:33.828Z,18.43
2022-12-20T00:26:01.137Z,18.43
2022-12-20T00:26:26.370Z,18.43
2022-12-20T00:26:48.075Z,18.44
2022-12-20T00:27:09.688Z,18.41
2022-12-20T00:27:31.377Z,18.43
2022-12-20T00:27:52.991Z,18.41
2022-12-20T00:28:15.684Z,18.41
2022-12-20T00:28:38.246Z,18.40
2022-12-20T00:29:00.353Z,18.36
2022-12-20T00:29:22.605Z,18.35
2022-12-20T00:29:45.420Z,18.33
2022-12-20T00:30:08.688Z,18.32
2022-12-20T00:30:30.377Z,18.28
2022-12-20T00:30:53.973Z,18.28
2022-12-20T00:31:20.899Z,18.23
2022-12-20T00:31:42.626Z,18.20
2022-12-20T00:32:04.515Z,18.20
2022-12-20T00:32:27.721Z,18.18
2022-12-20T00:32:49.542Z,18.18
2022-12-20T00:33:12.101Z,18.20
2022-12-20T00:33:38.064Z,18.15
2022-12-20T00:34:00.672Z,18.13
2022-12-20T00:34:23.344Z,18.13
2022-12-20T00:34:45.035Z,18.13
2022-12-20T00:35:07.181Z,18.10
2022-12-20T00:35:28.831Z,18.12
2022-12-20T00:35:50.556Z,18.09
2022-12-20T00:36:13.207Z,18.09
2022-12-20T00:36:34.875Z,18.10
2022-12-20T00:36:56.559Z,18.10
2022-12-20T00:37:18.149Z,18.10
2022-12-20T00:37:41.182Z,18.09
2022-12-20T00:38:03.008Z,18.09
2022-12-20T00:38:25.831Z,18.07
2022-12-20T00:38:48.545Z,18.05
2022-12-20T00:39:11.869Z,18.04
2022-12-20T00:39:33.475Z,18.03
2022-12-20T00:39:55.234Z,18.03
2022-12-20T00:40:18.435Z,18.01
2022-12-20T00:40:41.085Z,18.00
2022-12-20T00:41:06.598Z,17.98
2022-12-20T00:41:30.043Z,17.89
2022-12-20T00:41:53.091Z,17.92
2022-12-20T00:42:15.559Z,17.94
2022-12-20T00:42:37.187Z,17.93
2022-12-20T00:42:59.866Z,17.95
2022-12-20T00:43:21.977Z,17.94
2022-12-20T00:43:45.019Z,17.97
2022-12-20T00:44:06.642Z,17.96
2022-12-20T00:44:28.665Z,17.94
2022-12-20T00:44:51.263Z,17.90
2022-12-20T00:45:12.883Z,17.92
2022-12-20T00:45:34.640Z,17.91
2022-12-20T00:45:56.290Z,17.85
2022-12-20T00:46:19.285Z,17.83
2022-12-20T00:46:42.076Z,17.84
2022-12-20T00:47:04.785Z,17.85
2022-12-20T00:47:26.759Z,17.88
2022-12-20T00:47:48.431Z,17.87
2022-12-20T00:48:10.110Z,17.91
2022-12-20T00:48:33.140Z,17.91
2022-12-20T00:48:55.748Z,17.92
2022-12-20T00:49:17.455Z,17.91
2022-12-20T00:49:39.209Z,17.88
2022-12-20T00:50:01.864Z,17.85
2022-12-20T00:50:23.619Z,17.89
2022-12-20T00:50:45.307Z,17.84
2022-12-20T00:51:09.440Z,17.86
2022-12-20T00:51:32.964Z,17.85
2022-12-20T00:51:54.577Z,17.88
2022-12-20T00:52:16.169Z,17.89
2022-12-20T00:52:38.013Z,17.89
2022-12-20T00:53:00.696Z,17.90
2022-12-20T00:53:26.305Z,17.90
2022-12-20T00:53:48.586Z,17.89
2022-12-20T00:54:10.229Z,17.88
2022-12-20T00:54:33.444Z,17.89
2022-12-20T00:54:55.029Z,17.87
2022-12-20T00:55:18.011Z,17.88
2022-12-20T00:55:41.453Z,17.88
2022-12-20T00:56:05.315Z,17.87
2022-12-20T00:56:28.020Z,17.85
2022-12-20T00:56:50.704Z,17.84
2022-12-20T00:57:12.356Z,17.86
2022-12-20T00:57:34.985Z,17.85
2022-12-20T00:57:56.598Z,17.80
2022-12-20T00:58:18.244Z,17.79
2022-12-20T00:58:41.706Z,17.78
2022-12-20T00:59:03.469Z,17.78
2022-12-20T00:59:26.495Z,17.77
2022-12-20T00:59:48.204Z,17.76
2022-12-20T01:00:11.449Z,17.75
2022-12-20T01:00:33.178Z,17.72
2022-12-20T01:00:56.839Z,17.69
2022-12-20T01:01:22.633Z,17.67
2022-12-20T01:01:45.206Z,17.66
2022-12-20T01:02:07.173Z,17.67
2022-12-20T01:02:29.236Z,17.67
2022-12-20T01:02:52.275Z,17.67
2022-12-20T01:03:14.254Z,17.66
2022-12-20T01:03:36.500Z,17.64
2022-12-20T01:03:58.182Z,17.63
2022-12-20T01:04:20.910Z,17.62
2022-12-20T01:04:42.578Z,17.57
2022-12-20T01:05:04.933Z,17.58
2022-12-20T01:05:26.593Z,17.55
2022-12-20T01:05:52.973Z,17.53
2022-12-20T01:06:15.716Z,17.53
2022-12-20T01:06:37.434Z,17.50
2022-12-20T01:06:59.066Z,17.50
2022-12-20T01:07:23.384Z,17.50
2022-12-20T01:07:45.313Z,17.49
2022-12-20T01:08:07.225Z,17.50
2022-12-20T01:08:30.962Z,17.48
2022-12-20T01:08:53.259Z,17.44
2022-12-20T01:09:15.834Z,17.43
2022-12-20T01:09:37.489Z,17.41
2022-12-20T01:09:59.501Z,17.39
2022-12-20T01:10:22.612Z,17.37
2022-12-20T01:10:44.454Z,17.38
2022-12-20T01:11:09.892Z,17.37
2022-12-20T01:11:34.227Z,17.38
2022-12-20T01:11:56.371Z,17.36
2022-12-20T01:12:18.108Z,17.37
2022-12-20T01:12:40.727Z,17.35
2022-12-20T01:13:02.344Z,17.40
2022-12-20T01:13:24.188Z,17.42
2022-12-20T01:13:49.481Z,17.36
2022-12-20T01:14:14.735Z,17.40
2022-12-20T01:14:36.430Z,17.43
2022-12-20T01:14:58.077Z,17.43
2022-12-20T01:15:20.050Z,17.37
2022-12-20T01:15:41.680Z,17.40
2022-12-20T01:16:05.480Z,17.48
2022-12-20T01:16:31.125Z,17.51
2022-12-20T01:16:52.918Z,17.57
2022-12-20T01:17:15.368Z,17.56
2022-12-20T01:17:37.828Z,17.59
2022-12-20T01:18:00.515Z,17.61
2022-12-20T01:18:22.375Z,17.64
2022-12-20T01:18:44.713Z,17.67
2022-12-20T01:19:07.762Z,17.66
2022-12-20T01:19:30.360Z,17.65
2022-12-20T01:19:52.018Z,17.69
2022-12-20T01:21:01.608Z,17.71
2022-12-20T01:21:26.353Z,17.71
2022-12-20T01:21:48.066Z,17.75
2022-12-20T01:22:09.906Z,17.74
2022-12-20T01:22:31.547Z,17.74
2022-12-20T01:22:54.257Z,17.74
2022-12-20T01:23:15.999Z,17.76
2022-12-20T01:23:38.121Z,17.78
2022-12-20T01:23:59.756Z,17.74
2022-12-20T01:24:21.492Z,17.73
2022-12-20T01:24:44.091Z,17.77
2022-12-20T01:25:06.762Z,17.78
2022-12-20T01:25:30.028Z,17.79
2022-12-20T01:25:51.688Z,17.80
2022-12-20T01:26:16.366Z,17.78
2022-12-20T01:26:39.128Z,17.78
2022-12-20T01:27:00.820Z,17.77
2022-12-20T01:27:22.601Z,17.79
2022-12-20T01:27:44.378Z,17.65
2022-12-20T01:28:06.262Z,17.65
2022-12-20T01:28:30.129Z,17.69
2022-12-20T01:28:54.336Z,17.71
2022-12-20T01:29:16.155Z,17.69
2022-12-20T01:29:37.720Z,17.71
2022-12-20T01:30:00.454Z,17.73
2022-12-20T01:30:22.152Z,17.73
2022-12-20T01:30:43.811Z,17.74
2022-12-20T01:31:06.571Z,17.71
2022-12-20T01:31:29.580Z,17.73
2022-12-20T01:32:04.772Z,17.69
2022-12-20T01:32:26.410Z,17.71
2022-12-20T01:32:48.059Z,17.72
2022-12-20T01:33:09.687Z,17.71
2022-12-20T01:33:32.264Z,17.71
2022-12-20T01:33:53.907Z,17.71
2022-12-20T01:34:15.463Z,17.69
2022-12-20T01:34:38.066Z,17.67
2022-12-20T01:34:59.790Z,17.67
2022-12-20T01:35:21.410Z,17.66
2022-12-20T01:35:43.996Z,17.65
2022-12-20T01:36:08.169Z,17.66
2022-12-20T01:36:32.964Z,17.65
2022-12-20T01:36:54.550Z,17.63
2022-12-20T01:37:16.224Z,17.64
2022-12-20T01:37:37.836Z,17.67
2022-12-20T01:37:59.414Z,17.66
2022-12-20T01:38:21.041Z,17.66
2022-12-20T01:38:43.773Z,17.65
2022-12-20T01:39:08.745Z,17.66
2022-12-20T01:39:31.377Z,17.61
2022-12-20T01:39:53.531Z,17.62
2022-12-20T01:40:16.853Z,17.62
2022-12-20T01:40:40.302Z,17.61
2022-12-20T01:41:02.577Z,17.63
2022-12-20T01:41:25.043Z,17.61
2022-12-20T01:41:46.782Z,17.66
2022-12-20T01:42:15.791Z,17.59
2022-12-20T01:42:38.259Z,17.64
2022-12-20T01:42:59.875Z,17.64
2022-12-20T01:43:22.215Z,17.65
2022-12-20T01:43:48.652Z,17.62
2022-12-20T01:44:43.960Z,17.55
2022-12-20T01:45:14.051Z,17.54
2022-12-20T01:45:35.774Z,17.60
2022-12-20T01:45:57.495Z,17.58
2022-12-20T01:46:21.621Z,17.58
2022-12-20T01:46:45.830Z,17.54
2022-12-20T01:47:07.821Z,17.54
2022-12-20T01:47:34.325Z,17.54
2022-12-20T01:47:57.035Z,17.57
2022-12-20T01:48:25.379Z,17.55
2022-12-20T01:48:52.554Z,17.55
2022-12-20T01:49:20.244Z,17.52
2022-12-20T01:49:47.076Z,17.50
2022-12-20T01:50:10.609Z,17.51
2022-12-20T01:50:32.294Z,17.54
2022-12-20T01:50:54.100Z,17.55
2022-12-20T01:51:16.109Z,17.56
2022-12-20T01:51:44.601Z,17.57
2022-12-20T01:52:12.020Z,17.52
2022-12-20T01:52:37.103Z,17.59
2022-12-20T01:53:00.174Z,17.62
2022-12-20T01:53:23.745Z,17.61
2022-12-20T01:53:47.318Z,17.58
2022-12-20T01:54:15.525Z,17.62
2022-12-20T01:54:42.768Z,17.63
2022-12-20T01:55:09.861Z,17.62
2022-12-20T01:55:33.092Z,17.60
2022-12-20T01:55:56.500Z,17.62
2022-12-20T01:56:19.141Z,17.64
2022-12-20T01:56:43.838Z,17.59
2022-12-20T01:57:09.156Z,17.62
2022-12-20T01:57:36.559Z,17.63
2022-12-20T01:58:03.097Z,17.64
2022-12-20T01:58:24.814Z,17.59
2022-12-20T01:58:49.098Z,17.59
2022-12-20T01:59:12.452Z,17.60
2022-12-20T01:59:38.283Z,17.63
2022-12-20T01:59:59.999Z,17.61
2022-12-20T02:00:21.761Z,17.63
2022-12-20T02:00:44.554Z,17.66
2022-12-20T02:01:07.889Z,17.66
2022-12-20T02:01:29.605Z,17.64
2022-12-20T02:01:51.636Z,17.66
2022-12-20T02:02:14.091Z,17.66
2022-12-20T02:02:37.764Z,17.70
2022-12-20T02:03:03.993Z,17.72
2022-12-20T02:03:26.088Z,17.70
2022-12-20T02:03:49.405Z,17.72
2022-12-20T02:04:12.044Z,17.75
2022-12-20T02:04:33.664Z,17.71
2022-12-20T02:04:55.289Z,17.69
2022-12-20T02:05:19.406Z,17.71
2022-12-20T02:05:45.144Z,17.69
2022-12-20T02:06:19.071Z,17.67
2022-12-20T02:06:40.704Z,17.69
2022-12-20T02:07:04.761Z,17.68
2022-12-20T02:07:30.790Z,17.69
2022-12-20T02:07:56.395Z,17.73
2022-12-20T02:08:21.365Z,17.75
2022-12-20T02:08:44.769Z,17.75
2022-12-20T02:09:08.429Z,17.76
2022-12-20T02:09:32.383Z,17.78
2022-12-20T02:09:57.507Z,17.76
2022-12-20T02:10:22.904Z,17.76
2022-12-20T02:11:01.159Z,17.78
2022-12-20T02:11:43.419Z,17.76
2022-12-20T02:12:10.614Z,17.78
2022-12-20T02:12:38.911Z,17.71
2022-12-20T02:13:08.243Z,17.73
2022-12-20T02:13:38.818Z,17.72
2022-12-20T02:14:08.815Z,17.69
2022-12-20T02:14:49.204Z,17.70
2022-12-20T02:15:29.408Z,17.75
2022-12-20T02:15:55.285Z,17.74
2022-12-20T02:16:23.795Z,17.75
2022-12-20T02:16:56.816Z,17.76
2022-12-20T02:17:28.368Z,17.72
2022-12-20T02:18:01.568Z,17.72
2022-12-20T02:18:28.910Z,17.71
2022-12-20T02:18:58.135Z,17.50
2022-12-20T02:19:35.975Z,17.56
2022-12-20T02:20:36.686Z,17.55
2022-12-20T02:21:18.592Z,17.43
2022-12-20T02:21:46.893Z,17.41
2022-12-20T02:22:19.224Z,17.51
2022-12-20T02:22:56.030Z,17.55
2022-12-20T02:23:46.156Z,17.58
2022-12-20T02:24:54.272Z,17.61
2022-12-20T02:25:38.993Z,17.52
2022-12-20T02:26:18.777Z,17.41
2022-12-20T02:27:03.916Z,17.47
2022-12-20T02:27:39.668Z,17.44
2022-12-20T02:28:06.070Z,17.42
2022-12-20T02:28:45.487Z,17.41
2022-12-20T02:29:22.263Z,17.44
2022-12-20T02:30:01.363Z,17.46
2022-12-20T02:30:27.682Z,17.46
2022-12-20T02:30:54.825Z,17.46
2022-12-20T02:31:21.718Z,17.45
2022-12-20T02:31:49.961Z,17.42
2022-12-20T02:32:18.480Z,17.42
2022-12-20T02:32:46.529Z,17.41
2022-12-20T02:33:11.756Z,17.41
2022-12-20T02:33:33.657Z,17.40
2022-12-20T02:33:58.423Z,17.41
2022-12-20T02:34:27.126Z,17.41
2022-12-20T02:34:50.651Z,17.42
2022-12-20T02:35:14.995Z,17.39
2022-12-20T02:35:39.688Z,17.39
2022-12-20T02:36:04.899Z,17.36
2022-12-20T02:36:26.776Z,17.34
2022-12-20T02:36:48.496Z,17.34
2022-12-20T02:37:12.068Z,17.35
2022-12-20T02:37:33.727Z,17.35
2022-12-20T02:37:57.996Z,17.29
2022-12-20T02:38:29.101Z,17.26
2022-12-20T02:38:53.126Z,17.25
2022-12-20T02:39:17.045Z,17.25
2022-12-20T02:39:40.849Z,17.26
2022-12-20T02:40:06.159Z,17.26
2022-12-20T02:40:33.067Z,17.22
2022-12-20T02:41:00.287Z,17.28
2022-12-20T02:41:26.683Z,17.22
2022-12-20T02:41:53.058Z,17.18
2022-12-20T02:42:20.104Z,17.13
2022-12-20T02:42:43.739Z,17.09
2022-12-20T02:43:31.716Z,17.09
2022-12-20T02:44:18.354Z,17.04
2022-12-20T02:45:03.317Z,17.01
2022-12-20T02:45:33.810Z,16.98
2022-12-20T02:45:58.833Z,16.94
2022-12-20T02:46:23.528Z,16.88
2022-12-20T02:46:49.952Z,16.87
2022-12-20T02:47:16.836Z,16.89
2022-12-20T02:47:45.736Z,16.89
2022-12-20T02:48:11.974Z,16.82
2022-12-20T02:48:37.341Z,16.87
2022-12-20T02:49:04.902Z,16.86
2022-12-20T02:49:30.669Z,16.76
2022-12-20T02:49:55.719Z,16.76
2022-12-20T02:50:21.778Z,16.75
2022-12-20T02:50:49.633Z,16.73
2022-12-20T02:51:12.703Z,16.74
2022-12-20T02:51:36.007Z,16.73
2022-12-20T02:52:01.032Z,16.70
2022-12-20T02:52:27.784Z,16.70
2022-12-20T02:52:50.767Z,16.69
2022-12-20T02:53:14.344Z,16.72
2022-12-20T02:53:42.710Z,16.71
2022-12-20T02:54:07.875Z,16.63
2022-12-20T02:54:30.212Z,16.64
2022-12-20T02:54:53.392Z,16.62
2022-12-20T02:55:15.817Z,16.58
2022-12-20T02:55:42.770Z,16.57
2022-12-20T02:56:13.011Z,16.58
2022-12-20T02:56:39.582Z,16.58
2022-12-20T02:57:06.540Z,16.56
2022-12-20T02:57:37.022Z,16.54
2022-12-20T02:58:03.014Z,16.52
2022-12-20T02:58:31.677Z,16.30
2022-12-20T02:59:01.652Z,16.34
2022-12-20T02:59:26.190Z,16.36
2022-12-20T02:59:55.619Z,16.37
2022-12-20T03:00:21.361Z,16.40
2022-12-20T03:00:48.910Z,16.34
2022-12-20T03:01:16.513Z,16.37
2022-12-20T03:01:43.669Z,16.32
2022-12-20T03:02:06.941Z,16.35
2022-12-20T03:02:29.700Z,16.38
2022-12-20T03:03:11.084Z,16.41
2022-12-20T03:03:34.996Z,16.40
2022-12-20T03:03:58.129Z,16.34
2022-12-20T03:04:25.572Z,16.38
2022-12-20T03:04:49.259Z,16.38
2022-12-20T03:05:12.832Z,16.40
2022-12-20T03:05:43.814Z,16.38
2022-12-20T03:06:09.034Z,16.32
2022-12-20T03:06:34.637Z,16.36
2022-12-20T03:06:59.348Z,16.37
2022-12-20T03:07:21.515Z,16.40
2022-12-20T03:07:44.131Z,16.40
2022-12-20T03:08:07.078Z,16.30
2022-12-20T03:08:29.905Z,16.35
2022-12-20T03:08:52.528Z,16.29
2022-12-20T03:09:19.335Z,16.32
2022-12-20T03:09:45.862Z,16.34
2022-12-20T03:10:11.749Z,16.29
2022-12-20T03:10:34.747Z,16.32
2022-12-20T03:10:56.965Z,16.26
2022-12-20T03:11:20.312Z,16.35
2022-12-20T03:11:41.970Z,16.20
2022-12-20T03:12:05.143Z,16.15
2022-12-20T03:12:30.292Z,16.24
2022-12-20T03:12:52.409Z,16.20
2022-12-20T03:13:15.291Z,16.25
2022-12-20T03:13:43.769Z,16.33
2022-12-20T03:14:05.497Z,16.31
2022-12-20T03:14:29.799Z,16.36
2022-12-20T03:14:53.719Z,16.33
2022-12-20T03:15:16.757Z,16.38
2022-12-20T03:15:39.961Z,16.41
2022-12-20T03:16:04.105Z,16.39
2022-12-20T03:16:25.821Z,16.43
2022-12-20T03:16:47.682Z,16.43
2022-12-20T03:17:09.471Z,16.42
2022-12-20T03:17:33.058Z,16.41
2022-12-20T03:17:55.717Z,16.43
2022-12-20T03:18:17.724Z,16.43
2022-12-20T03:18:39.743Z,16.42
2022-12-20T03:19:01.482Z,16.41
2022-12-20T03:19:24.273Z,16.39
2022-12-20T03:19:45.921Z,16.42
2022-12-20T03:20:08.939Z,16.43
2022-12-20T03:20:30.715Z,16.42
2022-12-20T03:20:53.351Z,16.46
2022-12-20T03:21:15.022Z,16.48
2022-12-20T03:21:36.763Z,16.47
2022-12-20T03:21:58.640Z,16.47
2022-12-20T03:22:21.734Z,16.45
2022-12-20T03:22:43.400Z,16.42
2022-12-20T03:23:05.156Z,16.43
2022-12-20T03:23:26.967Z,16.42
2022-12-20T03:23:48.690Z,16.43
2022-12-20T03:24:13.584Z,16.45
2022-12-20T03:24:35.256Z,16.43
2022-12-20T03:25:01.877Z,16.43
2022-12-20T03:25:25.334Z,16.46
2022-12-20T03:25:47.927Z,16.47
2022-12-20T03:26:17.353Z,16.48
2022-12-20T03:26:43.588Z,16.46
2022-12-20T03:27:05.208Z,16.48
2022-12-20T03:27:28.830Z,16.50
2022-12-20T03:27:51.918Z,16.48
2022-12-20T03:28:13.799Z,16.49
2022-12-20T03:28:35.524Z,16.54
2022-12-20T03:28:58.154Z,16.53
2022-12-20T03:29:22.236Z,16.55
2022-12-20T03:29:45.885Z,16.55
2022-12-20T03:30:08.789Z,16.58
2022-12-20T03:30:33.470Z,16.58
2022-12-20T03:30:55.157Z,16.59
2022-12-20T03:31:18.336Z,16.60
2022-12-20T03:31:45.281Z,16.58
2022-12-20T03:32:07.961Z,16.59
2022-12-20T03:32:29.541Z,16.60
2022-12-20T03:32:51.215Z,16.62
2022-12-20T03:33:13.042Z,16.57
2022-12-20T03:33:36.474Z,16.61
2022-12-20T03:34:01.334Z,16.55
2022-12-20T03:34:23.173Z,16.53
2022-12-20T03:34:44.843Z,16.53
2022-12-20T03:35:07.852Z,16.54
2022-12-20T03:35:33.867Z,16.55
2022-12-20T03:35:55.568Z,16.57
2022-12-20T03:36:17.537Z,16.58
2022-12-20T03:36:39.160Z,16.57
2022-12-20T03:37:02.221Z,16.60
2022-12-20T03:37:24.031Z,16.56
2022-12-20T03:37:45.729Z,16.56
2022-12-20T03:38:07.539Z,16.56
2022-12-20T03:38:30.184Z,16.60
2022-12-20T03:38:53.165Z,16.59
2022-12-20T03:39:17.361Z,16.54
2022-12-20T03:39:39.355Z,16.51
2022-12-20T03:40:05.257Z,16.57
2022-12-20T03:40:27.308Z,16.53
2022-12-20T03:40:49.229Z,16.52
2022-12-20T03:41:15.617Z,16.56
2022-12-20T03:41:37.638Z,16.56
2022-12-20T03:42:00.379Z,16.57
2022-12-20T03:42:22.241Z,16.55
2022-12-20T03:42:44.915Z,16.55
2022-12-20T03:43:06.626Z,16.56
2022-12-20T03:43:28.324Z,16.53
2022-12-20T03:43:50.446Z,16.52
2022-12-20T03:44:12.313Z,16.49
2022-12-20T03:44:35.594Z,16.48
2022-12-20T03:44:58.146Z,16.46
2022-12-20T03:45:22.472Z,16.46
2022-12-20T03:45:45.365Z,16.45
2022-12-20T03:46:08.048Z,16.42
2022-12-20T03:46:34.657Z,16.41
2022-12-20T03:46:58.006Z,16.41
2022-12-20T03:47:20.680Z,16.40
2022-12-20T03:47:43.017Z,16.38
2022-12-20T03:48:05.020Z,16.38
2022-12-20T03:48:27.734Z,16.36
2022-12-20T03:48:50.344Z,16.33
2022-12-20T03:49:12.195Z,16.34
2022-12-20T03:49:40.359Z,16.33
2022-12-20T03:50:02.059Z,16.33
2022-12-20T03:50:27.293Z,16.33
2022-12-20T03:50:49.951Z,16.31
2022-12-20T03:51:11.904Z,16.29
2022-12-20T03:51:33.947Z,16.28
2022-12-20T03:51:56.507Z,16.27
2022-12-20T03:52:18.563Z,16.25
2022-12-20T03:52:41.198Z,16.26
2022-12-20T03:53:03.457Z,16.24
2022-12-20T03:53:25.490Z,16.23
2022-12-20T03:53:47.148Z,16.23
2022-12-20T03:54:09.612Z,16.22
2022-12-20T03:54:50.679Z,16.19
2022-12-20T03:55:15.523Z,16.20
2022-12-20T03:55:40.818Z,16.21
2022-12-20T03:56:06.447Z,16.18
2022-12-20T03:56:29.025Z,16.17
2022-12-20T03:56:50.758Z,16.14
2022-12-20T03:57:12.925Z,16.17
2022-12-20T03:57:35.019Z,16.15
2022-12-20T03:57:58.123Z,16.14
2022-12-20T03:58:25.055Z,16.11
2022-12-20T03:58:46.855Z,16.11
2022-12-20T03:59:10.216Z,16.09
2022-12-20T03:59:31.928Z,16.10
2022-12-20T03:59:55.742Z,16.08
2022-12-20T04:00:18.289Z,16.07
2022-12-20T04:00:42.415Z,16.06
2022-12-20T04:01:27.679Z,15.99
2022-12-20T04:01:51.843Z,16.02
2022-12-20T04:02:13.751Z,16.02
2022-12-20T04:02:35.922Z,16.04
2022-12-20T04:02:59.274Z,16.05
2022-12-20T04:03:21.610Z,16.05
2022-12-20T04:03:44.282Z,16.06
2022-12-20T04:04:06.299Z,16.03
2022-12-20T04:04:29.609Z,16.05
2022-12-20T04:04:51.274Z,16.03
2022-12-20T04:05:13.085Z,16.04
2022-12-20T04:05:34.888Z,16.04
2022-12-20T04:05:57.769Z,16.04
2022-12-20T04:06:19.553Z,16.08
2022-12-20T04:06:41.436Z,16.09
2022-12-20T04:07:03.328Z,16.09
2022-12-20T04:07:27.741Z,16.09
2022-12-20T04:07:49.871Z,16.08
2022-12-20T04:08:11.926Z,16.11
2022-12-20T04:08:34.774Z,16.10
2022-12-20T04:08:57.492Z,16.08
2022-12-20T04:09:24.346Z,16.06
2022-12-20T04:09:51.574Z,16.06
2022-12-20T04:10:13.592Z,16.03
2022-12-20T04:10:57.315Z,16.02
2022-12-20T04:11:23.835Z,16.03
2022-12-20T04:11:50.553Z,16.04
2022-12-20T04:12:13.305Z,16.05
2022-12-20T04:12:35.209Z,16.01
2022-12-20T04:12:59.271Z,16.03
2022-12-20T04:13:21.020Z,16.02
2022-12-20T04:13:43.203Z,16.06
2022-12-20T04:14:06.658Z,16.05
2022-12-20T04:14:28.658Z,16.05
2022-12-20T04:14:50.494Z,16.05
2022-12-20T04:15:12.305Z,16.04
2022-12-20T04:15:36.541Z,16.04
2022-12-20T04:16:00.832Z,16.06
2022-12-20T04:16:28.865Z,16.06
2022-12-20T04:16:52.494Z,16.07
2022-12-20T04:17:18.337Z,16.10
2022-12-20T04:17:41.529Z,16.09
2022-12-20T04:18:03.996Z,16.06
2022-12-20T04:18:25.718Z,16.05
2022-12-20T04:18:47.964Z,16.08
2022-12-20T04:19:11.926Z,16.08
2022-12-20T04:19:39.867Z,16.03
2022-12-20T04:20:18.786Z,16.02
2022-12-20T04:20:44.380Z,16.05
2022-12-20T04:21:16.388Z,16.04
2022-12-20T04:21:42.226Z,16.06
2022-12-20T04:22:05.985Z,16.08
2022-12-20T04:22:42.034Z,16.06
2022-12-20T04:23:03.946Z,16.07
2022-12-20T04:23:25.862Z,16.09
2022-12-20T04:23:47.573Z,16.08
2022-12-20T04:24:12.254Z,16.12
2022-12-20T04:24:54.844Z,16.14
2022-12-20T04:25:26.907Z,16.09
2022-12-20T04:25:51.199Z,16.09
2022-12-20T04:26:13.397Z,16.10
2022-12-20T04:26:35.223Z,16.09
2022-12-20T04:26:58.274Z,16.10
2022-12-20T04:27:20.979Z,16.10
2022-12-20T04:27:44.133Z,16.13
2022-12-20T04:28:06.031Z,16.13
2022-12-20T04:28:27.866Z,16.14
2022-12-20T04:28:51.812Z,16.14
2022-12-20T04:29:14.878Z,16.16
2022-12-20T04:29:38.542Z,16.17
2022-12-20T04:30:03.787Z,16.18
2022-12-20T04:30:25.877Z,16.20
2022-12-20T04:30:47.766Z,16.15
2022-12-20T04:31:20.043Z,16.12
2022-12-20T04:31:45.991Z,16.12
2022-12-20T04:32:09.412Z,16.12
2022-12-20T04:32:34.322Z,16.13
2022-12-20T04:32:57.157Z,16.13
2022-12-20T04:33:23.969Z,16.15
2022-12-20T04:33:46.608Z,16.15
2022-12-20T04:34:08.741Z,16.13
2022-12-20T04:34:34.757Z,16.14
2022-12-20T04:34:56.793Z,16.17
2022-12-20T04:35:19.905Z,16.16
2022-12-20T04:35:41.898Z,16.16
2022-12-20T04:36:04.502Z,16.16
2022-12-20T04:36:30.804Z,16.17
2022-12-20T04:36:54.796Z,16.18
2022-12-20T04:37:30.482Z,16.15
2022-12-20T04:37:56.715Z,16.14
2022-12-20T04:38:20.207Z,16.17
2022-12-20T04:38:48.911Z,16.15
2022-12-20T04:39:11.447Z,16.18
2022-12-20T04:39:58.260Z,16.17
2022-12-20T04:40:29.065Z,16.16
2022-12-20T04:40:55.809Z,16.18
2022-12-20T04:41:22.618Z,16.19
2022-12-20T04:41:48.654Z,16.16
2022-12-20T04:42:11.353Z,16.17
2022-12-20T04:42:33.881Z,16.16
2022-12-20T04:42:55.886Z,16.18
2022-12-20T04:43:18.656Z,16.20
2022-12-20T04:43:42.087Z,16.20
2022-12-20T04:44:03.974Z,16.20
2022-12-20T04:44:31.077Z,16.20
2022-12-20T04:44:54.267Z,16.21
2022-12-20T04:45:21.221Z,16.19
2022-12-20T04:45:44.231Z,16.16
2022-12-20T04:46:06.314Z,16.14
2022-12-20T04:46:28.268Z,16.20
2022-12-20T04:46:54.375Z,16.21
2022-12-20T04:47:17.503Z,16.23
2022-12-20T04:47:39.135Z,16.24
2022-12-20T04:48:21.070Z,16.25
2022-12-20T04:49:00.695Z,16.23
2022-12-20T04:49:24.868Z,16.22
2022-12-20T04:49:46.521Z,16.22
2022-12-20T04:50:09.025Z,16.22
2022-12-20T04:50:31.596Z,16.25
2022-12-20T04:50:54.218Z,16.24
2022-12-20T04:51:16.432Z,16.25
2022-12-20T04:51:39.581Z,16.24
2022-12-20T04:52:21.490Z,16.23
2022-12-20T04:53:02.245Z,16.23
2022-12-20T04:53:43.237Z,16.25
2022-12-20T04:54:05.776Z,16.21
2022-12-20T04:54:36.341Z,16.13
2022-12-20T04:55:08.973Z,16.17
2022-12-20T04:55:31.107Z,16.18
2022-12-20T04:55:54.672Z,16.18
2022-12-20T04:56:18.504Z,16.14
2022-12-20T04:56:40.191Z,16.15
2022-12-20T04:57:07.081Z,16.15
2022-12-20T04:57:29.771Z,16.12
2022-12-20T04:57:51.605Z,16.15
2022-12-20T04:58:13.744Z,16.16
2022-12-20T04:58:36.134Z,16.16
2022-12-20T04:59:02.461Z,16.18
2022-12-20T04:59:24.670Z,16.19
2022-12-20T04:59:48.556Z,16.18
2022-12-20T05:00:11.344Z,16.19
2022-12-20T05:00:37.703Z,16.18
2022-12-20T05:01:12.785Z,16.17
2022-12-20T05:01:41.046Z,16.20
2022-12-20T05:02:03.146Z,16.20
2022-12-20T05:02:51.456Z,16.19
2022-12-20T05:03:15.153Z,16.18
2022-12-20T05:03:37.332Z,16.18
2022-12-20T05:03:59.168Z,16.19
2022-12-20T05:04:28.026Z,16.20
2022-12-20T05:04:53.231Z,16.22
2022-12-20T05:05:14.850Z,16.23
2022-12-20T05:05:42.858Z,16.25
2022-12-20T05:06:06.200Z,16.21
2022-12-20T05:06:28.379Z,16.20
2022-12-20T05:06:50.352Z,16.21
2022-12-20T05:07:12.014Z,16.15
2022-12-20T05:07:37.355Z,16.18
2022-12-20T05:07:59.043Z,16.18
2022-12-20T05:08:21.735Z,16.15
2022-12-20T05:08:46.987Z,16.21
2022-12-20T05:09:08.698Z,16.20
2022-12-20T05:09:30.378Z,16.20
2022-12-20T05:09:51.982Z,16.22
2022-12-20T05:10:13.670Z,16.21
2022-12-20T05:10:37.671Z,16.22
2022-12-20T05:10:59.369Z,16.22
2022-12-20T05:11:21.132Z,16.22
2022-12-20T05:11:42.804Z,16.24
2022-12-20T05:12:05.682Z,16.23
2022-12-20T05:12:28.533Z,16.24
2022-12-20T05:12:52.762Z,16.21
2022-12-20T05:13:25.777Z,16.20
2022-12-20T05:13:48.465Z,16.21
2022-12-20T05:14:12.703Z,16.21
2022-12-20T05:14:34.404Z,16.25
2022-12-20T05:14:56.935Z,16.23
2022-12-20T05:15:20.463Z,16.23
2022-12-20T05:15:42.603Z,16.22
2022-12-20T05:16:06.473Z,16.23
2022-12-20T05:16:30.514Z,16.15